KAUM

Details ICAO KAUM
Name AUSTIN MUNI
Region United States
Timezone America/Chicago (UTC-5.0)
Plans Departing 20
Arriving 25
Stats Elevation 1,233 ft / 376 m (AMSL)
Location 43.662633° -92.932931°
Runways 1
Magnetic Variation 0.046° E
Sunrise 2018-05-25 10:38:56 UTC / 2018-05-25 05:38:56 Local
Sunset 2018-05-26 01:41:20 UTC / 2018-05-25 20:41:20 Local
Advertisement - Login to hide

Runways

ID Width Length Bearing (true) Bearing (mag) Surface Threshold Offset Overrun Length
17 100 ft / 30 m 5,806 ft / 1,770 m 172.16° 172.11° Concrete 0 ft / 0 m 0 ft / 0 m
35 100 ft / 30 m 5,806 ft / 1,770 m 352.16° 352.11° Concrete 0 ft / 0 m 0 ft / 0 m

Map

Weather


0- 5 10 15 20 25 30 35+ Temperature / ° C

Clouds and Precipitation
Forecast for 2018-05-26 00:00 UTC. Updated 2 hours ago

Ground ~20,000 ft ~40,000 ft Winds

METAR

KAUM 260055Z AUTO 00000KT 10SM SCT110 24/19 A2972 RMK AO2 LTG DSNT N SE AND NW

TAF

Not found

Frequencies

Recorded 119.02 MHz AWOS 3
Approach 119.80 MHz ROCHESTER APP/DEP
Unicom 122.70 MHz CTAF/UNICOM
Warning: Do not use this data for real-world aviation or navigation. No guarantee of current accuracy is given.